Time,TemperatureF,DewpointF,PressureIn,WindDirection,WindDirectionDegrees,WindSpeedMPH,WindSpeedGustMPH,Humidity,HourlyPrecipIn,Conditions,Clouds,dailyrainin,SoftwareType,DateUTC
2013-06-05 00:02:00,41.0,34.0,-100.00,East,85,16.0,23.0,78,0.00,,,-99.99,,2013-06-05 06:02:00,
2013-06-05 00:12:00,41.0,35.0,-100.00,East,85,16.0,23.0,78,0.00,,,-99.99,,2013-06-05 06:12:00,
2013-06-05 00:22:00,41.0,35.0,-100.00,East,86,14.0,21.0,78,0.00,,,-99.99,,2013-06-05 06:22:00,
2013-06-05 00:32:00,41.0,35.0,-100.00,East,88,14.0,22.0,78,0.00,,,-99.99,,2013-06-05 06:32:00,
2013-06-05 00:42:00,40.0,35.0,-100.00,East,82,14.0,21.0,80,0.00,,,-99.99,,2013-06-05 06:42:00,
2013-06-05 00:52:00,40.0,35.0,-100.00,East,79,12.0,17.0,80,0.00,,,-99.99,,2013-06-05 06:52:00,
2013-06-05 01:02:00,40.0,35.0,-100.00,ENE,78,13.0,19.0,81,0.00,,,-99.99,,2013-06-05 07:02:00,
2013-06-05 01:12:00,40.0,35.0,-100.00,East,79,13.0,19.0,81,0.00,,,-99.99,,2013-06-05 07:12:00,
2013-06-05 01:22:00,39.0,35.0,-100.00,East,80,12.0,17.0,84,0.00,,,-99.99,,2013-06-05 07:22:00,
2013-06-05 01:32:00,39.0,35.0,-100.00,East,82,12.0,19.0,85,0.00,,,-99.99,,2013-06-05 07:32:00,
2013-06-05 01:42:00,39.0,35.0,-100.00,East,82,11.0,16.0,86,0.00,,,-99.99,,2013-06-05 07:42:00,
2013-06-05 01:52:00,39.0,35.0,-100.00,East,83,12.0,17.0,87,0.00,,,-99.99,,2013-06-05 07:52:00,
2013-06-05 02:02:00,39.0,35.0,-100.00,East,89,9.0,15.0,87,0.00,,,-99.99,,2013-06-05 08:02:00,
2013-06-05 02:12:00,39.0,35.0,-100.00,East,86,9.0,14.0,87,0.00,,,-99.99,,2013-06-05 08:12:00,
2013-06-05 02:22:00,39.0,35.0,-100.00,East,85,11.0,18.0,88,0.00,,,-99.99,,2013-06-05 08:22:00,
2013-06-05 02:32:00,38.0,35.0,-100.00,East,89,10.0,14.0,88,0.00,,,-99.99,,2013-06-05 08:32:00,
2013-06-05 02:42:00,38.0,35.0,-100.00,East,95,8.0,13.0,89,0.00,,,-99.99,,2013-06-05 08:42:00,
2013-06-05 02:52:00,38.0,35.0,-100.00,East,97,7.0,12.0,89,0.00,,,-99.99,,2013-06-05 08:52:00,
2013-06-05 03:02:00,38.0,35.0,-100.00,East,100,7.0,12.0,88,0.00,,,-99.99,,2013-06-05 09:02:00,
2013-06-05 03:12:00,38.0,35.0,-100.00,East,100,7.0,12.0,88,0.00,,,-99.99,,2013-06-05 09:12:00,
2013-06-05 03:22:00,38.0,35.0,-100.00,ESE,104,7.0,11.0,88,0.00,,,-99.99,,2013-06-05 09:22:00,
2013-06-05 03:32:00,38.0,35.0,-100.00,ESE,107,8.0,11.0,88,0.00,,,-99.99,,2013-06-05 09:32:00,
2013-06-05 03:42:00,38.0,35.0,-100.00,ESE,107,7.0,11.0,88,0.00,,,-99.99,,2013-06-05 09:42:00,
2013-06-05 03:52:00,38.0,35.0,-100.00,East,100,4.0,7.0,89,0.00,,,-99.99,,2013-06-05 09:52:00,
2013-06-05 04:03:00,38.0,35.0,-100.00,ESE,106,6.0,9.0,89,0.00,,,-99.99,,2013-06-05 10:03:00,
2013-06-05 04:12:00,38.0,35.0,-100.00,ESE,106,7.0,9.0,89,0.00,,,-99.99,,2013-06-05 10:12:00,
2013-06-05 04:22:00,37.0,34.0,-100.00,SE,140,6.0,9.0,91,0.00,,,-99.99,,2013-06-05 10:22:00,
2013-06-05 04:33:00,36.0,34.0,-100.00,SSE,154,6.0,7.0,92,0.00,,,-99.99,,2013-06-05 10:33:00,
2013-06-05 04:42:00,36.0,34.0,-100.00,SSE,157,6.0,7.0,92,0.00,,,-99.99,,2013-06-05 10:42:00,
2013-06-05 04:52:00,36.0,33.0,-100.00,SSE,157,7.0,8.0,91,0.00,,,-99.99,,2013-06-05 10:52:00,
2013-06-05 05:02:00,36.0,34.0,-100.00,SSE,157,6.0,8.0,91,0.00,,,-99.99,,2013-06-05 11:02:00,
2013-06-05 05:12:00,36.0,34.0,-100.00,SSE,157,6.0,7.0,92,0.00,,,-99.99,,2013-06-05 11:12:00,
2013-06-05 05:22:00,35.0,33.0,-100.00,SE,145,4.0,6.0,91,0.00,,,-99.99,,2013-06-05 11:22:00,
2013-06-05 05:32:00,34.0,33.0,-100.00,SE,140,3.0,5.0,94,0.00,,,-99.99,,2013-06-05 11:32:00,
2013-06-05 05:42:00,36.0,34.0,-100.00,ESE,123,2.0,4.0,92,0.00,,,-99.99,,2013-06-05 11:42:00,
2013-06-05 05:52:00,36.0,34.0,-100.00,ESE,104,2.0,4.0,91,0.00,,,-99.99,,2013-06-05 11:52:00,
2013-06-05 06:02:00,36.0,34.0,-100.00,ENE,78,3.0,6.0,92,0.00,,,-99.99,,2013-06-05 12:02:00,
2013-06-05 06:12:00,36.0,34.0,-100.00,ENE,69,4.0,7.0,92,0.00,,,-99.99,,2013-06-05 12:12:00,
2013-06-05 06:22:00,36.0,34.0,-100.00,ENE,58,6.0,7.0,91,0.00,,,-99.99,,2013-06-05 12:22:00,
2013-06-05 06:32:00,36.0,34.0,-100.00,ENE,59,4.0,6.0,91,0.00,,,-99.99,,2013-06-05 12:32:00,
2013-06-05 06:44:00,37.0,34.0,-100.00,ENE,73,6.0,7.0,89,0.00,,,-99.99,,2013-06-05 12:44:00,
2013-06-05 06:52:00,37.0,34.0,-100.00,East,83,6.0,8.0,88,0.00,,,-99.99,,2013-06-05 12:52:00,
2013-06-05 07:02:00,38.0,35.0,-100.00,ESE,102,4.0,11.0,88,0.00,,,-99.99,,2013-06-05 13:02:00,
2013-06-05 07:12:00,38.0,35.0,-100.00,ESE,114,6.0,9.0,89,0.00,,,-99.99,,2013-06-05 13:12:00,
2013-06-05 07:22:00,38.0,35.0,-100.00,SE,124,7.0,11.0,87,0.00,,,-99.99,,2013-06-05 13:22:00,
2013-06-05 07:32:00,38.0,35.0,-100.00,ESE,102,5.0,11.0,87,0.00,,,-99.99,,2013-06-05 13:32:00,
2013-06-05 07:42:00,39.0,35.0,-100.00,ESE,112,6.0,8.0,86,0.00,,,-99.99,,2013-06-05 13:42:00,
2013-06-05 07:52:00,39.0,35.0,-100.00,ESE,114,4.0,9.0,85,0.00,,,-99.99,,2013-06-05 13:52:00,
2013-06-05 08:02:00,40.0,36.0,-100.00,East,95,3.0,7.0,86,0.00,,,-99.99,,2013-06-05 14:02:00,
2013-06-05 08:12:00,40.0,35.0,-100.00,East,100,4.0,7.0,83,0.00,,,-99.99,,2013-06-05 14:12:00,
2013-06-05 08:22:00,41.0,36.0,-100.00,ESE,109,4.0,9.0,84,0.00,,,-99.99,,2013-06-05 14:22:00,
2013-06-05 08:32:00,42.0,36.0,-100.00,ESE,106,6.0,11.0,80,0.00,,,-99.99,,2013-06-05 14:32:00,
2013-06-05 08:42:00,42.0,36.0,-100.00,ESE,114,7.0,12.0,81,0.00,,,-99.99,,2013-06-05 14:42:00,
2013-06-05 08:52:00,43.0,36.0,-100.00,ESE,110,6.0,13.0,76,0.00,,,-99.99,,2013-06-05 14:52:00,
2013-06-05 09:02:00,43.0,36.0,-100.00,ESE,117,7.0,12.0,76,0.00,,,-99.99,,2013-06-05 15:02:00,
2013-06-05 09:12:00,45.0,37.0,-100.00,East,99,6.0,11.0,75,0.00,,,-99.99,,2013-06-05 15:12:00,
2013-06-05 09:22:00,45.0,36.0,-100.00,ENE,61,4.0,9.0,73,0.00,,,-99.99,,2013-06-05 15:22:00,
2013-06-05 09:33:00,46.0,37.0,-100.00,ENE,58,5.0,10.0,71,0.00,,,-99.99,,2013-06-05 15:33:00,
2013-06-05 09:42:00,45.0,37.0,-100.00,ENE,68,6.0,9.0,73,0.00,,,-99.99,,2013-06-05 15:42:00,
2013-06-05 09:53:00,46.0,37.0,-100.00,ENE,61,4.0,7.0,70,0.00,,,-99.99,,2013-06-05 15:53:00,
2013-06-05 10:03:00,46.0,37.0,-100.00,NNE,24,5.0,9.0,72,0.00,,,-99.99,,2013-06-05 16:03:00,
2013-06-05 10:12:00,47.0,37.0,-100.00,NE,38,4.0,7.0,68,0.00,,,-99.99,,2013-06-05 16:12:00,
2013-06-05 10:22:00,46.0,36.0,-100.00,NNE,30,4.0,9.0,69,0.00,,,-99.99,,2013-06-05 16:22:00,
2013-06-05 10:32:00,48.0,37.0,-100.00,NE,38,3.0,7.0,66,0.00,,,-99.99,,2013-06-05 16:32:00,
2013-06-05 10:42:00,51.0,37.0,-100.00,NE,48,4.0,7.0,58,0.00,,,-99.99,,2013-06-05 16:42:00,
2013-06-05 10:54:00,48.0,36.0,-100.00,NE,35,5.0,12.0,62,0.00,,,-99.99,,2013-06-05 16:54:00,
2013-06-05 11:02:00,49.0,36.0,-100.00,North,10,4.0,10.0,60,0.00,,,-99.99,,2013-06-05 17:02:00,
2013-06-05 11:12:00,49.0,36.0,-100.00,NNW,336,6.0,11.0,61,0.00,,,-99.99,,2013-06-05 17:12:00,
2013-06-05 11:22:00,49.0,36.0,-100.00,WNW,295,5.0,9.0,60,0.00,,,-99.99,,2013-06-05 17:22:00,
2013-06-05 11:32:00,50.0,36.0,-100.00,NW,309,7.0,11.0,58,0.00,,,-99.99,,2013-06-05 17:32:00,
2013-06-05 11:43:00,51.0,37.0,-100.00,NW,308,7.0,13.0,59,0.00,,,-99.99,,2013-06-05 17:43:00,
2013-06-05 11:52:00,51.0,35.0,-100.00,West,281,7.0,16.0,55,0.00,,,-99.99,,2013-06-05 17:52:00,
2013-06-05 12:02:00,52.0,35.0,-100.00,NW,311,7.0,14.0,53,0.00,,,-99.99,,2013-06-05 18:02:00,
2013-06-05 12:12:00,53.0,34.0,-100.00,WNW,287,11.0,19.0,47,0.00,,,-99.99,,2013-06-05 18:12:00,
2013-06-05 12:22:00,53.0,31.0,-100.00,WNW,287,10.0,19.0,43,0.00,,,-99.99,,2013-06-05 18:22:00,
2013-06-05 12:32:00,53.0,33.0,-100.00,West,271,12.0,17.0,47,0.00,,,-99.99,,2013-06-05 18:32:00,
2013-06-05 12:42:00,53.0,31.0,-100.00,West,275,11.0,19.0,41,0.00,,,-99.99,,2013-06-05 18:42:00,
2013-06-05 12:52:00,55.0,27.0,-100.00,West,278,14.0,21.0,35,0.00,,,-99.99,,2013-06-05 18:52:00,
2013-06-05 13:02:00,55.0,27.0,-100.00,WNW,292,16.0,21.0,35,0.00,,,-99.99,,2013-06-05 19:02:00,
2013-06-05 13:12:00,55.0,31.0,-100.00,West,277,12.0,21.0,39,0.00,,,-99.99,,2013-06-05 19:12:00,
2013-06-05 13:23:00,56.0,29.0,-100.00,West,272,11.0,21.0,36,0.00,,,-99.99,,2013-06-05 19:23:00,
2013-06-05 13:32:00,55.0,29.0,-100.00,WSW,258,10.0,22.0,36,0.00,,,-99.99,,2013-06-05 19:32:00,
2013-06-05 13:42:00,56.0,26.0,-100.00,West,264,12.0,20.0,32,0.00,,,-99.99,,2013-06-05 19:42:00,
2013-06-05 13:52:00,56.0,28.0,-100.00,West,272,9.0,22.0,34,0.00,,,-99.99,,2013-06-05 19:52:00,
2013-06-05 14:02:00,57.0,28.0,-100.00,West,280,11.0,21.0,33,0.00,,,-99.99,,2013-06-05 20:02:00,
2013-06-05 14:12:00,58.0,29.0,-100.00,West,272,13.0,21.0,33,0.00,,,-99.99,,2013-06-05 20:12:00,
2013-06-05 14:22:00,57.0,27.0,-100.00,West,267,12.0,22.0,31,0.00,,,-99.99,,2013-06-05 20:22:00,
2013-06-05 14:32:00,59.0,29.0,-100.00,WNW,285,12.0,22.0,32,0.00,,,-99.99,,2013-06-05 20:32:00,
2013-06-05 14:42:00,58.0,26.0,-100.00,WNW,285,11.0,21.0,30,0.00,,,-99.99,,2013-06-05 20:42:00,
2013-06-05 14:52:00,59.0,27.0,-100.00,West,280,14.0,40.0,29,0.00,,,-99.99,,2013-06-05 20:52:00,
2013-06-05 15:02:00,58.0,27.0,-100.00,West,274,12.0,23.0,29,0.00,,,-99.99,,2013-06-05 21:02:00,
2013-06-05 15:12:00,59.0,26.0,-100.00,West,277,13.0,23.0,28,0.00,,,-99.99,,2013-06-05 21:12:00,
2013-06-05 15:22:00,59.0,24.0,-100.00,WNW,289,16.0,23.0,26,0.00,,,-99.99,,2013-06-05 21:22:00,
2013-06-05 15:33:00,59.0,25.0,-100.00,West,278,15.0,22.0,27,0.00,,,-99.99,,2013-06-05 21:33:00,
2013-06-05 15:43:00,60.0,24.0,-100.00,West,281,16.0,26.0,25,0.00,,,-99.99,,2013-06-05 21:43:00,
2013-06-05 15:53:00,60.0,26.0,-100.00,WNW,282,14.0,22.0,27,0.00,,,-99.99,,2013-06-05 21:53:00,
2013-06-05 16:02:00,60.0,23.0,-100.00,WNW,291,15.0,21.0,23,0.00,,,-99.99,,2013-06-05 22:02:00,
2013-06-05 16:12:00,59.0,23.0,-100.00,West,274,14.0,22.0,24,0.00,,,-99.99,,2013-06-05 22:12:00,
2013-06-05 16:22:00,60.0,26.0,-100.00,WNW,285,14.0,22.0,26,0.00,,,-99.99,,2013-06-05 22:22:00,
2013-06-05 16:32:00,60.0,25.0,-100.00,WNW,288,16.0,26.0,26,0.00,,,-99.99,,2013-06-05 22:32:00,
2013-06-05 16:42:00,60.0,23.0,-100.00,WNW,282,17.0,26.0,24,0.00,,,-99.99,,2013-06-05 22:42:00,
2013-06-05 16:52:00,60.0,25.0,-100.00,WNW,288,16.0,25.0,27,0.00,,,-99.99,,2013-06-05 22:52:00,
2013-06-05 17:02:00,60.0,22.0,-100.00,West,272,13.0,21.0,22,0.00,,,-99.99,,2013-06-05 23:02:00,
2013-06-05 17:12:00,60.0,17.0,-100.00,WNW,282,19.0,27.0,19,0.00,,,-99.99,,2013-06-05 23:12:00,
2013-06-05 17:22:00,60.0,21.0,-100.00,WNW,287,18.0,27.0,22,0.00,,,-99.99,,2013-06-05 23:22:00,
2013-06-05 17:32:00,60.0,20.0,-100.00,WNW,284,16.0,24.0,21,0.00,,,-99.99,,2013-06-05 23:32:00,
2013-06-05 17:42:00,61.0,21.0,-100.00,WNW,289,17.0,22.0,21,0.00,,,-99.99,,2013-06-05 23:42:00,
2013-06-05 17:53:00,60.0,22.0,-100.00,WNW,296,15.0,22.0,22,0.00,,,-99.99,,2013-06-05 23:53:00,
2013-06-05 18:02:00,60.0,22.0,-100.00,West,280,17.0,22.0,23,0.00,,,-99.99,,2013-06-06 00:02:00,
2013-06-05 18:12:00,60.0,22.0,-100.00,West,270,15.0,23.0,23,0.00,,,-99.99,,2013-06-06 00:12:00,
2013-06-05 18:22:00,60.0,23.0,-100.00,West,264,14.0,19.0,23,0.00,,,-99.99,,2013-06-06 00:22:00,
2013-06-05 18:32:00,61.0,24.0,-100.00,West,270,12.0,21.0,24,0.00,,,-99.99,,2013-06-06 00:32:00,
2013-06-05 18:42:00,61.0,25.0,-100.00,WNW,282,11.0,19.0,25,0.00,,,-99.99,,2013-06-06 00:42:00,
2013-06-05 18:52:00,61.0,22.0,-100.00,WNW,299,14.0,21.0,23,0.00,,,-99.99,,2013-06-06 00:52:00,
2013-06-05 19:02:00,60.0,24.0,-100.00,WNW,291,14.0,21.0,25,0.00,,,-99.99,,2013-06-06 01:02:00,
2013-06-05 19:12:00,60.0,21.0,-100.00,WNW,299,15.0,21.0,22,0.00,,,-99.99,,2013-06-06 01:12:00,
2013-06-05 19:22:00,60.0,18.0,-100.00,WNW,291,14.0,20.0,19,0.00,,,-99.99,,2013-06-06 01:22:00,
2013-06-05 19:32:00,60.0,18.0,-100.00,WNW,299,14.0,19.0,19,0.00,,,-99.99,,2013-06-06 01:32:00,
2013-06-05 19:42:00,60.0,19.0,-100.00,NW,318,12.0,17.0,20,0.00,,,-99.99,,2013-06-06 01:42:00,
2013-06-05 19:52:00,59.0,18.0,-100.00,NW,313,12.0,16.0,20,0.00,,,-99.99,,2013-06-06 01:52:00,
2013-06-05 20:02:00,59.0,20.0,-100.00,NW,315,12.0,15.0,22,0.00,,,-99.99,,2013-06-06 02:02:00,
2013-06-05 20:12:00,58.0,20.0,-100.00,NW,325,10.0,12.0,22,0.00,,,-99.99,,2013-06-06 02:12:00,
2013-06-05 20:22:00,57.0,20.0,-100.00,NW,320,10.0,14.0,24,0.00,,,-99.99,,2013-06-06 02:22:00,
2013-06-05 20:32:00,56.0,20.0,-100.00,NW,323,9.0,11.0,25,0.00,,,-99.99,,2013-06-06 02:32:00,
2013-06-05 20:42:00,56.0,20.0,-100.00,NW,323,9.0,11.0,25,0.00,,,-99.99,,2013-06-06 02:42:00,
2013-06-05 20:52:00,56.0,20.0,-100.00,NW,323,9.0,11.0,25,0.00,,,-99.99,,2013-06-06 02:52:00,
2013-06-05 21:02:00,52.0,20.0,-100.00,NW,316,4.0,6.0,29,0.00,,,-99.99,,2013-06-06 03:02:00,
2013-06-05 21:12:00,54.0,19.0,-100.00,NNW,347,3.0,5.0,25,0.00,,,-99.99,,2013-06-06 03:12:00,
2013-06-05 21:22:00,51.0,21.0,-100.00,SSE,154,1.0,6.0,31,0.00,,,-99.99,,2013-06-06 03:22:00,
2013-06-05 21:33:00,50.0,25.0,-100.00,East,88,6.0,9.0,37,0.00,,,-99.99,,2013-06-06 03:33:00,
2013-06-05 21:43:00,49.0,32.0,-100.00,ESE,106,6.0,9.0,52,0.00,,,-99.99,,2013-06-06 03:43:00,
2013-06-05 21:52:00,48.0,29.0,-100.00,ESE,121,8.0,15.0,47,0.00,,,-99.99,,2013-06-06 03:52:00,
2013-06-05 22:03:00,47.0,29.0,-100.00,SE,131,5.0,10.0,50,0.00,,,-99.99,,2013-06-06 04:03:00,
2013-06-05 22:13:00,48.0,30.0,-100.00,SE,126,7.0,12.0,51,0.00,,,-99.99,,2013-06-06 04:13:00,
2013-06-05 22:23:00,48.0,29.0,-100.00,ESE,123,11.0,17.0,47,0.00,,,-99.99,,2013-06-06 04:23:00,
2013-06-05 22:33:00,48.0,29.0,-100.00,SE,138,9.0,12.0,48,0.00,,,-99.99,,2013-06-06 04:33:00,
2013-06-05 22:42:00,47.0,27.0,-100.00,SSE,152,8.0,11.0,46,0.00,,,-99.99,,2013-06-06 04:42:00,
2013-06-05 22:53:00,48.0,27.0,-100.00,SSE,152,8.0,11.0,45,0.00,,,-99.99,,2013-06-06 04:53:00,
2013-06-05 23:02:00,47.0,27.0,-100.00,SSE,160,7.0,9.0,47,0.00,,,-99.99,,2013-06-06 05:02:00,
2013-06-05 23:12:00,46.0,27.0,-100.00,SSE,161,7.0,10.0,47,0.00,,,-99.99,,2013-06-06 05:12:00,
2013-06-05 23:22:00,45.0,26.0,-100.00,SSE,167,7.0,9.0,46,0.00,,,-99.99,,2013-06-06 05:22:00,
2013-06-05 23:32:00,47.0,26.0,-100.00,South,169,8.0,10.0,43,0.00,,,-99.99,,2013-06-06 05:32:00,
2013-06-05 23:42:00,47.0,24.0,-100.00,South,175,7.0,10.0,40,0.00,,,-99.99,,2013-06-06 05:42:00,
2013-06-05 23:52:00,49.0,24.0,-100.00,South,181,9.0,12.0,37,0.00,,,-99.99,,2013-06-06 05:52:00,